Time;durP1;ratioP1;P1;durP2;ratioP2;P2;SDS_P1;SDS_P2;PMS_P1;PMS_P2;Temp;Humidity;BMP_temperature;BMP_pressure;BME280_temperature;BME280_humidity;BME280_pressure;Samples;Min_cycle;Max_cycle;Signal;HPM_P1;HPM_P2
2021/12/25 00:00:18;;;;;;;;;;;-0.40;99.90;;;;;;4956693;28;19929;-88
2021/12/25 00:02:46;;;;;;;;;;;-0.50;99.90;;;;;;4956475;28;19973;-88
2021/12/25 00:05:15;;;;;;;;;;;-0.60;99.90;;;;;;4957570;28;20283;-88
2021/12/25 00:07:49;;;;;;;;;;;-0.50;99.90;;;;;;4956826;28;19942;-88
2021/12/25 00:10:32;;;;;;;;;;;-0.50;99.90;;;;;;4957910;28;19934;-88
2021/12/25 00:12:58;;;;;;;;;;;-0.50;99.90;;;;;;4957548;28;19930;-88
2021/12/25 00:15:28;;;;;;;;;;;-0.60;99.90;;;;;;4956904;28;19933;-88
2021/12/25 00:18:01;;;;;;;;;;;-0.50;99.90;;;;;;4956841;28;19926;-88
2021/12/25 00:20:26;;;;;;;;;;;-0.50;99.90;;;;;;4957892;28;20371;-88
2021/12/25 00:22:56;;;;;;;;;;;-0.60;99.90;;;;;;4955667;28;19927;-88
2021/12/25 00:25:27;;;;;;;;;;;-0.70;99.90;;;;;;4956845;28;19977;-88
2021/12/25 00:28:17;;;;;;;;;;;-0.70;99.90;;;;;;4959949;28;20009;-88
2021/12/25 00:33:58;;;;;;;;;;;-0.70;99.90;;;;;;4963748;28;19930;-88
2021/12/25 00:36:45;;;;;;;;;;;;;;;;;;;;;
2021/12/25 00:39:13;;;;;;;;;;;-0.80;99.90;;;;;;4974961;28;19934;-88
2021/12/25 00:41:44;;;;;;;;;;;-0.80;99.90;;;;;;4960446;28;20345;-88
2021/12/25 00:47:05;;;;;;;;;;;;;;;;;;;;;
2021/12/25 00:49:36;;;;;;;;;;;-0.90;99.90;;;;;;4942597;29;20017;-88
2021/12/25 00:52:05;;;;;;;;;;;-0.90;99.90;;;;;;4956385;29;19927;-88
2021/12/25 00:54:30;;;;;;;;;;;-1.00;99.90;;;;;;4940751;29;20295;-88
2021/12/25 00:57:16;;;;;;;;;;;-1.00;99.90;;;;;;4940380;29;19927;-88
2021/12/25 00:59:42;;;;;;;;;;;-1.00;99.90;;;;;;4940913;29;19953;-88
2021/12/25 01:02:27;;;;;;;;;;;-1.00;99.90;;;;;;4956056;28;19930;-88
2021/12/25 01:05:00;;;;;;;;;;;-1.00;99.90;;;;;;4942462;29;20291;-88
2021/12/25 01:07:29;;;;;;;;;;;-1.00;99.90;;;;;;4941264;28;19927;-88
2021/12/25 01:09:57;;;;;;;;;;;-1.00;99.90;;;;;;4939655;29;19950;-88
2021/12/25 01:12:29;;;;;;;;;;;-1.10;99.90;;;;;;4940932;28;19926;-88
2021/12/25 01:15:00;;;;;;;;;;;-1.10;99.90;;;;;;4924651;29;19933;-88
2021/12/25 01:18:09;;;;;;;;;;;-1.10;99.90;;;;;;4940513;29;19965;-88
2021/12/25 01:20:46;;;;;;;;;;;-1.10;99.90;;;;;;4941864;29;20078;-88
2021/12/25 01:37:21;;;;;;;;;;;-1.30;99.90;;;;;;4942519;29;19927;-88
2021/12/25 01:40:13;;;;;;;;;;;-1.30;99.90;;;;;;4971371;28;19926;-88
2021/12/25 01:48:27;;;;;;;;;;;-1.40;99.90;;;;;;4921542;29;20110;-88
2021/12/25 01:51:01;;;;;;;;;;;-1.40;99.90;;;;;;4971932;28;19933;-88
2021/12/25 01:53:26;;;;;;;;;;;-1.50;99.90;;;;;;4955627;29;19994;-88
2021/12/25 01:55:57;;;;;;;;;;;-1.50;99.90;;;;;;4954980;29;19927;-87
2021/12/25 01:58:22;;;;;;;;;;;-1.50;99.90;;;;;;4954681;29;20045;-87
2021/12/25 02:00:49;;;;;;;;;;;-1.60;99.90;;;;;;4971618;28;19973;-88
2021/12/25 02:03:16;;;;;;;;;;;-1.60;99.90;;;;;;4969813;28;19934;-87
2021/12/25 02:05:47;;;;;;;;;;;-1.60;99.90;;;;;;4923445;29;19930;-88
2021/12/25 02:08:34;;;;;;;;;;;-1.60;99.90;;;;;;4923740;29;19926;-88
2021/12/25 02:11:01;;;;;;;;;;;-1.70;99.90;;;;;;4941622;29;19931;-88
2021/12/25 02:13:29;;;;;;;;;;;-1.70;99.90;;;;;;4939246;29;19927;-88
2021/12/25 02:16:10;;;;;;;;;;;;;;;;;;;;;
2021/12/25 02:21:33;;;;;;;;;;;-1.70;99.90;;;;;;4964550;28;19965;-88
2021/12/25 02:24:04;;;;;;;;;;;-1.80;99.90;;;;;;4956305;28;20013;-88
2021/12/25 02:26:30;;;;;;;;;;;-1.80;99.90;;;;;;4971498;28;19936;-88
2021/12/25 02:29:00;;;;;;;;;;;-1.90;99.90;;;;;;4971588;28;20303;-88
2021/12/25 02:31:31;;;;;;;;;;;-1.90;99.90;;;;;;4955217;28;19926;-88
2021/12/25 02:34:06;;;;;;;;;;;-1.90;99.90;;;;;;4971609;28;19975;-88
2021/12/25 02:36:52;;;;;;;;;;;-2.00;99.90;;;;;;4972596;28;20379;-88
2021/12/25 02:39:20;;;;;;;;;;;-2.00;99.90;;;;;;4942011;29;19927;-88
2021/12/25 02:41:45;;;;;;;;;;;-2.00;99.90;;;;;;4938833;29;19927;-87
2021/12/25 02:44:13;;;;;;;;;;;-2.10;99.90;;;;;;4954122;29;19930;-88
2021/12/25 02:46:58;;;;;;;;;;;-2.10;99.90;;;;;;4959218;28;20390;-88
2021/12/25 02:49:27;;;;;;;;;;;-2.10;99.90;;;;;;4942567;28;19933;-88
2021/12/25 02:52:01;;;;;;;;;;;-2.10;99.90;;;;;;4941282;28;19926;-87
2021/12/25 02:54:35;;;;;;;;;;;-2.20;99.90;;;;;;4941071;28;19930;-88
2021/12/25 02:57:03;;;;;;;;;;;-2.20;99.90;;;;;;4922922;29;20298;-88
2021/12/25 02:59:41;;;;;;;;;;;;;;;;;;;;;
2021/12/25 03:02:22;;;;;;;;;;;-2.30;99.90;;;;;;4955944;28;19933;-89
2021/12/25 03:05:06;;;;;;;;;;;-2.30;99.90;;;;;;4955367;28;19937;-87
2021/12/25 03:07:35;;;;;;;;;;;-2.30;99.90;;;;;;4954105;29;19926;-88
2021/12/25 03:10:00;;;;;;;;;;;-2.20;99.90;;;;;;4923223;29;19926;-88
2021/12/25 03:12:45;;;;;;;;;;;;;;;;;;;;;
2021/12/25 03:15:17;;;;;;;;;;;-2.40;99.90;;;;;;4972298;28;19930;-88
2021/12/25 03:17:52;;;;;;;;;;;;;;;;;;;;;
2021/12/25 03:20:21;;;;;;;;;;;-2.40;99.90;;;;;;4971164;28;20295;-88
2021/12/25 03:22:57;;;;;;;;;;;-2.40;99.90;;;;;;4938267;29;19930;-88
2021/12/25 03:25:27;;;;;;;;;;;-2.40;99.90;;;;;;4954861;28;19949;-88
2021/12/25 03:28:00;;;;;;;;;;;-2.50;99.90;;;;;;4954039;29;20264;-88
2021/12/25 03:30:26;;;;;;;;;;;-2.50;99.90;;;;;;4954611;28;20006;-88
2021/12/25 03:32:59;;;;;;;;;;;-2.50;99.90;;;;;;4922133;29;19978;-88
2021/12/25 03:35:35;;;;;;;;;;;;;;;;;;;;;
2021/12/25 03:38:22;;;;;;;;;;;-2.60;99.90;;;;;;4971252;28;19933;-88
2021/12/25 03:40:50;;;;;;;;;;;-2.60;99.90;;;;;;4939987;29;20017;-88
2021/12/25 03:43:21;;;;;;;;;;;-2.60;99.90;;;;;;4969971;28;20394;-88
2021/12/25 03:45:56;;;;;;;;;;;-2.60;99.90;;;;;;4957331;28;20311;-88
2021/12/25 03:58:55;;;;;;;;;;;-2.80;99.90;;;;;;4975212;28;19933;-87
2021/12/25 04:01:47;;;;;;;;;;;-2.80;99.90;;;;;;4956911;28;19926;-87
2021/12/25 04:04:25;;;;;;;;;;;-2.80;99.90;;;;;;4964713;28;19933;-87
2021/12/25 04:07:07;;;;;;;;;;;-2.80;99.90;;;;;;4962568;28;19926;-87
2021/12/25 04:09:35;;;;;;;;;;;-2.90;99.90;;;;;;4962201;28;20274;-87
2021/12/25 04:12:08;;;;;;;;;;;-2.90;99.90;;;;;;4960876;28;19933;-87
2021/12/25 04:14:40;;;;;;;;;;;-2.90;99.90;;;;;;4960810;28;20124;-87
2021/12/25 04:20:22;;;;;;;;;;;-2.90;99.90;;;;;;4971582;28;19926;-87
2021/12/25 04:23:15;;;;;;;;;;;-2.90;99.90;;;;;;4963130;28;19930;-87
2021/12/25 04:25:43;;;;;;;;;;;-3.00;99.90;;;;;;4963227;28;20358;-87
2021/12/25 04:28:31;;;;;;;;;;;-2.90;99.90;;;;;;4960599;28;19926;-87
2021/12/25 05:02:56;;;;;;;;;;;-3.20;99.90;;;;;;4942796;29;19933;-87
2021/12/25 05:04:57;;;;;;;;;;;-3.20;99.90;;;;;;4936491;29;19926;-87
2021/12/25 05:07:28;;;;;;;;;;;-3.30;99.90;;;;;;4926020;29;20326;-87
2021/12/25 05:09:56;;;;;;;;;;;-3.30;99.90;;;;;;4924876;29;19934;-87
2021/12/25 05:12:34;;;;;;;;;;;;;;;;;;;;;
2021/12/25 05:15:06;;;;;;;;;;;-3.30;99.90;;;;;;4957112;28;19933;-87
2021/12/25 05:17:40;;;;;;;;;;;-3.30;99.90;;;;;;4955381;29;19933;-87
2021/12/25 05:20:15;;;;;;;;;;;-3.30;99.90;;;;;;4940309;29;19933;-87
2021/12/25 05:22:51;;;;;;;;;;;-3.40;99.90;;;;;;4925127;29;20025;-87
2021/12/25 05:25:19;;;;;;;;;;;-3.40;99.90;;;;;;4956265;28;19970;-87
2021/12/25 05:27:49;;;;;;;;;;;-3.40;99.90;;;;;;4940929;28;19970;-87
2021/12/25 05:30:45;;;;;;;;;;;;;;;;;;;;;
2021/12/25 05:36:35;;;;;;;;;;;-3.50;99.90;;;;;;4964580;28;19933;-87
2021/12/25 05:39:14;;;;;;;;;;;-3.50;99.90;;;;;;4956221;29;19933;-88
2021/12/25 05:41:44;;;;;;;;;;;-3.50;99.90;;;;;;4934568;28;20009;-90
2021/12/25 05:44:13;;;;;;;;;;;-3.50;99.90;;;;;;4944344;28;19977;-90
2021/12/25 05:50:21;;;;;;;;;;;;;;;;;;;;;
2021/12/25 05:56:09;;;;;;;;;;;;;;;;;;;;;
2021/12/25 05:59:14;;;;;;;;;;;;;;;;;;;;;
2021/12/25 06:02:14;;;;;;;;;;;-3.60;99.90;;;;;;4962231;28;20009;-90
2021/12/25 06:05:56;;;;;;;;;;;;;;;;;;;;;
2021/12/25 06:08:04;;;;;;;;;;;-3.60;99.90;;;;;;4945706;29;19980;-91
2021/12/25 06:10:32;;;;;;;;;;;-3.60;99.90;;;;;;4924308;29;20326;-88
2021/12/25 06:13:23;;;;;;;;;;;-3.60;99.90;;;;;;4939716;29;20028;-88
2021/12/25 06:15:54;;;;;;;;;;;-3.70;99.90;;;;;;4924922;29;19933;-88
2021/12/25 06:18:43;;;;;;;;;;;-3.70;99.90;;;;;;4926857;28;20020;-88
2021/12/25 06:24:05;;;;;;;;;;;-3.70;99.90;;;;;;4958350;28;19926;-87
2021/12/25 06:29:51;;;;;;;;;;;;;;;;;;;;;
2021/12/25 06:32:43;;;;;;;;;;;-3.80;99.90;;;;;;4940781;29;19931;-88
2021/12/25 06:35:09;;;;;;;;;;;-3.80;99.90;;;;;;4936376;28;19927;-84
2021/12/25 06:38:00;;;;;;;;;;;-3.80;99.90;;;;;;4957212;28;20042;-86
2021/12/25 06:40:25;;;;;;;;;;;-3.80;99.90;;;;;;4959230;28;19977;-86
2021/12/25 06:45:45;;;;;;;;;;;-3.90;99.90;;;;;;4951088;28;19926;-87
2021/12/25 06:48:17;;;;;;;;;;;-3.90;99.90;;;;;;4958152;28;19926;-88
2021/12/25 06:51:13;;;;;;;;;;;-3.90;99.90;;;;;;4957912;28;19952;-87
2021/12/25 06:53:41;;;;;;;;;;;-3.90;99.90;;;;;;4956708;28;19978;-86
2021/12/25 07:02:32;;;;;;;;;;;-4.00;99.90;;;;;;4945200;29;20022;-88
2021/12/25 07:04:58;;;;;;;;;;;-4.00;99.90;;;;;;4955237;28;19933;-87
2021/12/25 07:07:43;;;;;;;;;;;;;;;;;;;;;
2021/12/25 07:10:42;;;;;;;;;;;-4.10;99.90;;;;;;4965060;28;19933;-90
2021/12/25 07:13:17;;;;;;;;;;;;;;;;;;;;;
2021/12/25 07:15:43;;;;;;;;;;;-4.10;99.90;;;;;;4958409;28;19933;-87
2021/12/25 07:18:28;;;;;;;;;;;;;;;;;;;;;
2021/12/25 07:21:23;;;;;;;;;;;-4.10;99.90;;;;;;4959502;28;19937;-87
2021/12/25 07:23:56;;;;;;;;;;;-4.00;99.90;;;;;;4941484;28;20266;-88
2021/12/25 07:26:35;;;;;;;;;;;;;;;;;;;;;
2021/12/25 07:29:05;;;;;;;;;;;-4.20;99.90;;;;;;4957871;28;20021;-89
2021/12/25 07:31:54;;;;;;;;;;;-4.20;99.90;;;;;;4958306;28;20017;-89
2021/12/25 07:34:25;;;;;;;;;;;-4.30;99.90;;;;;;4943710;28;20275;-87
2021/12/25 07:37:03;;;;;;;;;;;-4.20;99.90;;;;;;4958811;28;19933;-87
2021/12/25 07:45:51;;;;;;;;;;;-4.20;99.90;;;;;;4902808;29;19926;-90
2021/12/25 07:52:24;;;;;;;;;;;;;;;;;;;;;
2021/12/25 07:55:24;;;;;;;;;;;-4.20;99.90;;;;;;4974187;28;19933;-92
2021/12/25 08:00:59;;;;;;;;;;;;;;;;;;;;;
2021/12/25 08:03:35;;;;;;;;;;;-4.30;99.90;;;;;;4950666;28;20402;-88
2021/12/25 08:06:09;;;;;;;;;;;-4.30;99.90;;;;;;4945857;28;19926;-89
2021/12/25 08:09:10;;;;;;;;;;;;;;;;;;;;;
2021/12/25 08:12:17;;;;;;;;;;;-4.30;99.90;;;;;;4960315;28;20464;-87
2021/12/25 08:17:57;;;;;;;;;;;-4.30;99.90;;;;;;4953126;28;19926;-89
2021/12/25 08:20:54;;;;;;;;;;;-4.30;99.90;;;;;;4960727;28;20089;-90
2021/12/25 08:23:33;;;;;;;;;;;;;;;;;;;;;
2021/12/25 08:26:17;;;;;;;;;;;;;;;;;;;;;
2021/12/25 08:28:46;;;;;;;;;;;-4.20;99.90;;;;;;4961585;28;19933;-89
2021/12/25 08:31:14;;;;;;;;;;;-4.20;99.90;;;;;;4943665;28;20279;-87
2021/12/25 08:33:39;;;;;;;;;;;-4.20;99.90;;;;;;4944487;28;19926;-87
2021/12/25 08:36:27;;;;;;;;;;;-4.20;99.90;;;;;;4943027;28;19981;-88
2021/12/25 08:39:07;;;;;;;;;;;-4.20;99.90;;;;;;4966891;28;20371;-87
2021/12/25 08:41:59;;;;;;;;;;;;;;;;;;;;;
2021/12/25 08:47:44;;;;;;;;;;;-4.20;99.90;;;;;;4926562;28;19926;-88
2021/12/25 08:50:45;;;;;;;;;;;;;;;;;;;;;
2021/12/25 08:53:15;;;;;;;;;;;-4.20;99.90;;;;;;4972086;28;19926;-90
2021/12/25 08:55:44;;;;;;;;;;;-4.00;99.90;;;;;;4959763;28;19933;-90
2021/12/25 08:58:15;;;;;;;;;;;-4.00;99.90;;;;;;4959095;28;19927;-88
2021/12/25 09:00:57;;;;;;;;;;;;;;;;;;;;;
2021/12/25 09:03:28;;;;;;;;;;;-3.90;99.90;;;;;;4961067;28;19930;-87
2021/12/25 09:06:34;;;;;;;;;;;-3.90;99.90;;;;;;4959742;28;19977;-89
2021/12/25 09:09:23;;;;;;;;;;;-3.90;99.90;;;;;;4950365;28;19930;-88
2021/12/25 09:11:48;;;;;;;;;;;-3.80;99.90;;;;;;4954730;29;19933;-86
2021/12/25 09:14:21;;;;;;;;;;;-3.80;99.90;;;;;;4939841;29;20005;-87
2021/12/25 09:16:47;;;;;;;;;;;-3.70;99.90;;;;;;4941511;29;19933;-87
2021/12/25 09:19:12;;;;;;;;;;;-3.70;99.90;;;;;;4939620;29;19926;-88
2021/12/25 09:21:46;;;;;;;;;;;-3.70;99.90;;;;;;4925709;29;19935;-92
2021/12/25 09:24:27;;;;;;;;;;;;;;;;;;;;;
2021/12/25 09:30:49;;;;;;;;;;;;;;;;;;;;;
2021/12/25 09:33:57;;;;;;;;;;;;;;;;;;;;;
2021/12/25 09:36:32;;;;;;;;;;;-3.50;99.90;;;;;;4966830;28;20395;-88
2021/12/25 09:39:31;;;;;;;;;;;-3.40;99.90;;;;;;4974031;28;20045;-94
2021/12/25 09:42:25;;;;;;;;;;;;;;;;;;;;;
2021/12/25 09:44:54;;;;;;;;;;;-3.40;99.90;;;;;;4975527;28;19926;-95
2021/12/25 09:47:25;;;;;;;;;;;-3.30;99.90;;;;;;4956376;28;20268;-87
2021/12/25 09:53:08;;;;;;;;;;;-3.30;99.90;;;;;;4946998;28;19988;-89
2021/12/25 09:55:38;;;;;;;;;;;-3.20;99.90;;;;;;4957179;29;20401;-84
2021/12/25 09:58:04;;;;;;;;;;;-3.20;99.90;;;;;;4939588;29;19981;-83
2021/12/25 10:00:30;;;;;;;;;;;-3.20;99.90;;;;;;4954796;28;20319;-84
2021/12/25 10:02:56;;;;;;;;;;;-3.10;99.90;;;;;;4939168;29;20249;-84
2021/12/25 10:05:34;;;;;;;;;;;-3.10;99.90;;;;;;4954729;28;20005;-84
2021/12/25 10:08:03;;;;;;;;;;;-3.10;99.90;;;;;;4955257;29;19978;-84
2021/12/25 10:11:00;;;;;;;;;;;-3.00;99.90;;;;;;4970814;28;20021;-83
2021/12/25 10:13:42;;;;;;;;;;;-3.00;99.90;;;;;;4969399;28;20300;-83
2021/12/25 10:16:28;;;;;;;;;;;-3.00;99.90;;;;;;4955276;29;19930;-84
2021/12/25 10:18:55;;;;;;;;;;;-3.00;99.90;;;;;;4954152;29;19927;-84
2021/12/25 10:21:22;;;;;;;;;;;-2.90;99.90;;;;;;4954151;29;19935;-84
2021/12/25 10:24:28;;;;;;;;;;;-2.90;99.90;;;;;;4955077;28;19933;-84
2021/12/25 10:27:07;;;;;;;;;;;-2.90;99.90;;;;;;4943401;28;19926;-84
2021/12/25 10:29:35;;;;;;;;;;;-2.80;99.90;;;;;;4957092;28;20409;-84
2021/12/25 10:32:22;;;;;;;;;;;;;;;;;;;;;
2021/12/25 10:34:51;;;;;;;;;;;-2.80;99.90;;;;;;4968789;28;19933;-86
2021/12/25 10:37:25;;;;;;;;;;;-2.80;99.90;;;;;;4932219;28;19989;-85
2021/12/25 10:40:06;;;;;;;;;;;-2.80;99.90;;;;;;4942810;29;19962;-86
2021/12/25 10:42:33;;;;;;;;;;;-2.70;99.90;;;;;;4939295;28;19937;-92
2021/12/25 10:45:07;;;;;;;;;;;-2.70;99.90;;;;;;4941084;28;19980;-87
2021/12/25 10:47:35;;;;;;;;;;;-2.70;99.90;;;;;;4943045;28;19933;-85
2021/12/25 10:50:18;;;;;;;;;;;-2.60;99.90;;;;;;4941542;28;20279;-87
2021/12/25 10:55:37;;;;;;;;;;;-2.60;99.90;;;;;;4958368;28;19938;-87
2021/12/25 10:58:05;;;;;;;;;;;-2.60;99.90;;;;;;4938437;28;19926;-88
2021/12/25 11:00:33;;;;;;;;;;;-2.50;99.90;;;;;;4942200;28;19926;-87
2021/12/25 11:03:09;;;;;;;;;;;;;;;;;;;;;
2021/12/25 11:05:48;;;;;;;;;;;-2.50;99.90;;;;;;4955807;28;20189;-87
2021/12/25 11:08:19;;;;;;;;;;;-2.40;99.90;;;;;;4944298;28;19926;-87
2021/12/25 11:10:48;;;;;;;;;;;-2.40;99.90;;;;;;4957548;28;19933;-87
2021/12/25 11:13:18;;;;;;;;;;;-2.30;99.90;;;;;;4941504;28;19926;-86
2021/12/25 11:15:43;;;;;;;;;;;-2.30;99.90;;;;;;4941789;28;20385;-86
2021/12/25 11:18:14;;;;;;;;;;;-2.30;99.90;;;;;;4948778;29;19933;-85
2021/12/25 11:20:45;;;;;;;;;;;-2.20;99.90;;;;;;4938161;29;20389;-85
2021/12/25 11:23:11;;;;;;;;;;;-2.20;99.90;;;;;;4922883;29;19931;-85
2021/12/25 11:25:39;;;;;;;;;;;-2.20;99.90;;;;;;4922193;29;20371;-86
2021/12/25 11:28:07;;;;;;;;;;;-2.10;99.90;;;;;;4939768;28;19950;-85
2021/12/25 11:30:35;;;;;;;;;;;-2.20;99.90;;;;;;4922154;29;20283;-85
2021/12/25 11:33:01;;;;;;;;;;;-2.10;99.90;;;;;;4949066;28;19953;-85
2021/12/25 11:35:27;;;;;;;;;;;-2.10;99.90;;;;;;4921926;29;19934;-85
2021/12/25 11:37:54;;;;;;;;;;;-2.00;99.90;;;;;;4938919;28;19934;-85
2021/12/25 11:40:22;;;;;;;;;;;-2.00;99.90;;;;;;4957190;28;20398;-85
2021/12/25 11:42:48;;;;;;;;;;;-2.00;99.90;;;;;;4953997;28;19926;-85
2021/12/25 11:45:18;;;;;;;;;;;-1.90;99.90;;;;;;4941250;28;19981;-86
2021/12/25 11:47:48;;;;;;;;;;;-1.90;99.90;;;;;;4957338;28;19934;-85
2021/12/25 11:50:16;;;;;;;;;;;-1.90;99.90;;;;;;4956950;28;19926;-86
2021/12/25 11:52:53;;;;;;;;;;;-1.90;99.90;;;;;;4958468;28;20139;-85
2021/12/25 11:55:52;;;;;;;;;;;-1.80;99.90;;;;;;4941735;28;19926;-85
2021/12/25 11:58:37;;;;;;;;;;;-1.80;99.90;;;;;;4958467;28;19977;-85
2021/12/25 12:01:18;;;;;;;;;;;-1.80;99.90;;;;;;4973761;28;19926;-85
2021/12/25 12:03:56;;;;;;;;;;;-1.80;99.90;;;;;;4970882;28;19933;-85
2021/12/25 12:06:40;;;;;;;;;;;-1.80;99.90;;;;;;4957401;28;19926;-85
2021/12/25 12:09:09;;;;;;;;;;;-1.70;99.90;;;;;;4957108;28;19962;-85
2021/12/25 12:11:40;;;;;;;;;;;-1.80;99.90;;;;;;4941030;28;19994;-86
2021/12/25 12:14:23;;;;;;;;;;;-1.70;99.90;;;;;;4941253;28;19980;-86
2021/12/25 12:16:50;;;;;;;;;;;-1.80;99.90;;;;;;4972626;28;20410;-85
2021/12/25 12:19:45;;;;;;;;;;;-1.70;99.90;;;;;;4956754;28;20413;-85
2021/12/25 12:22:30;;;;;;;;;;;-1.70;99.90;;;;;;4937123;28;19933;-86
2021/12/25 12:27:34;;;;;;;;;;;-1.70;99.90;;;;;;4975538;28;19926;-86
2021/12/25 12:30:10;;;;;;;;;;;-1.70;99.90;;;;;;4960612;28;19953;-85
2021/12/25 12:32:45;;;;;;;;;;;-1.70;99.90;;;;;;4941404;28;19933;-85
2021/12/25 12:35:46;;;;;;;;;;;-1.70;99.90;;;;;;4933640;28;19962;-85
2021/12/25 12:38:52;;;;;;;;;;;-1.70;99.90;;;;;;4904766;29;19981;-87
2021/12/25 12:41:52;;;;;;;;;;;;;;;;;;;;;
2021/12/25 12:47:33;;;;;;;;;;;-1.70;99.90;;;;;;4962754;28;20251;-88
2021/12/25 12:50:09;;;;;;;;;;;-1.70;99.90;;;;;;4962350;28;19926;-86
2021/12/25 12:52:59;;;;;;;;;;;-1.60;99.90;;;;;;4960330;28;19932;-87
2021/12/25 12:56:02;;;;;;;;;;;-1.60;99.90;;;;;;4976007;28;19933;-87
2021/12/25 12:58:28;;;;;;;;;;;-1.60;99.90;;;;;;4957971;28;19930;-87
2021/12/25 13:01:03;;;;;;;;;;;-1.60;99.90;;;;;;4941769;28;20284;-85
2021/12/25 13:03:54;;;;;;;;;;;-1.60;99.90;;;;;;4961436;28;19977;-87
2021/12/25 13:06:35;;;;;;;;;;;;;;;;;;;;;
2021/12/25 13:09:13;;;;;;;;;;;-1.60;99.90;;;;;;4977705;28;19926;-87
2021/12/25 13:11:53;;;;;;;;;;;-1.60;99.90;;;;;;4956386;28;19926;-86
2021/12/25 13:14:19;;;;;;;;;;;-1.60;99.90;;;;;;4926641;29;20029;-86
2021/12/25 13:16:45;;;;;;;;;;;-1.60;99.90;;;;;;4924119;29;19926;-86
2021/12/25 13:19:30;;;;;;;;;;;-1.60;99.90;;;;;;4939901;29;20018;-88
2021/12/25 13:22:11;;;;;;;;;;;-1.60;99.90;;;;;;4957368;29;20291;-89
2021/12/25 13:24:55;;;;;;;;;;;;;;;;;;;;;
2021/12/25 13:27:44;;;;;;;;;;;-1.60;99.90;;;;;;4958590;28;20418;-87
2021/12/25 13:33:23;;;;;;;;;;;;;;;;;;;;;
2021/12/25 13:36:28;;;;;;;;;;;;;;;;;;;;;
2021/12/25 13:39:05;;;;;;;;;;;-1.60;99.90;;;;;;4988817;28;19935;-87
2021/12/25 13:41:39;;;;;;;;;;;-1.70;99.90;;;;;;4958406;28;20434;-87
2021/12/25 13:44:17;;;;;;;;;;;-1.70;99.90;;;;;;4955789;28;19930;-87
2021/12/25 13:46:48;;;;;;;;;;;-1.70;99.90;;;;;;4923608;29;19930;-87
2021/12/25 13:49:37;;;;;;;;;;;-1.70;99.90;;;;;;4938917;29;19933;-86
2021/12/25 13:52:20;;;;;;;;;;;-1.70;99.90;;;;;;4924843;29;19926;-87
2021/12/25 13:55:10;;;;;;;;;;;;;;;;;;;;;
2021/12/25 13:57:38;;;;;;;;;;;-1.70;99.90;;;;;;4975722;28;20338;-87
2021/12/25 14:00:17;;;;;;;;;;;-1.70;99.90;;;;;;4958113;28;20000;-86
2021/12/25 14:02:49;;;;;;;;;;;-1.80;99.90;;;;;;4945736;28;20340;-86
2021/12/25 14:05:27;;;;;;;;;;;-1.70;99.90;;;;;;4925422;28;19926;-92
2021/12/25 14:08:00;;;;;;;;;;;-1.80;99.90;;;;;;4941364;29;19927;-88
2021/12/25 14:10:30;;;;;;;;;;;-1.70;99.90;;;;;;4942811;28;19973;-88
2021/12/25 14:13:04;;;;;;;;;;;-1.80;99.90;;;;;;4959241;28;19933;-85
2021/12/25 14:15:30;;;;;;;;;;;-1.90;99.90;;;;;;4958525;28;20025;-85
2021/12/25 14:17:56;;;;;;;;;;;-1.90;99.90;;;;;;4940323;28;19926;-85
2021/12/25 14:20:26;;;;;;;;;;;-1.90;99.90;;;;;;4957893;28;19989;-85
2021/12/25 14:23:18;;;;;;;;;;;-1.90;99.90;;;;;;4941591;28;19949;-85
2021/12/25 14:25:46;;;;;;;;;;;-1.90;99.90;;;;;;4935741;29;19981;-85
2021/12/25 14:28:18;;;;;;;;;;;-2.00;99.90;;;;;;4938913;29;20260;-85
2021/12/25 14:31:02;;;;;;;;;;;-2.00;99.90;;;;;;4938813;29;20319;-85
2021/12/25 14:33:28;;;;;;;;;;;-2.00;99.90;;;;;;4970722;28;19993;-85
2021/12/25 14:36:01;;;;;;;;;;;-2.10;99.90;;;;;;4970718;28;19996;-85
2021/12/25 14:38:35;;;;;;;;;;;-2.00;99.90;;;;;;4958868;28;19934;-85
2021/12/25 14:41:01;;;;;;;;;;;-2.10;99.90;;;;;;4957266;28;19988;-86
2021/12/25 14:43:27;;;;;;;;;;;-2.10;99.90;;;;;;4941759;28;19930;-85
2021/12/25 14:45:55;;;;;;;;;;;-2.20;99.90;;;;;;4940864;28;19961;-84
2021/12/25 14:48:28;;;;;;;;;;;-2.20;99.90;;;;;;4941867;28;19933;-85
2021/12/25 14:51:04;;;;;;;;;;;-2.20;99.90;;;;;;4941351;28;19926;-85
2021/12/25 14:53:32;;;;;;;;;;;-2.20;99.90;;;;;;4958685;28;19926;-85
2021/12/25 14:56:01;;;;;;;;;;;-2.30;99.90;;;;;;4957099;28;20255;-85
2021/12/25 14:58:53;;;;;;;;;;;-2.30;99.90;;;;;;4958047;28;20374;-85
2021/12/25 15:01:29;;;;;;;;;;;-2.40;99.90;;;;;;4948431;29;20375;-84
2021/12/25 15:04:06;;;;;;;;;;;-2.40;99.90;;;;;;4937930;29;20375;-86
2021/12/25 15:06:39;;;;;;;;;;;-2.40;99.90;;;;;;4938354;29;19926;-86
2021/12/25 15:09:11;;;;;;;;;;;-2.50;99.90;;;;;;4938693;29;20033;-86
2021/12/25 15:11:43;;;;;;;;;;;-2.50;99.90;;;;;;4932093;28;20286;-86
2021/12/25 15:14:25;;;;;;;;;;;-2.60;99.90;;;;;;4940927;28;20374;-86
2021/12/25 15:16:52;;;;;;;;;;;-2.50;99.90;;;;;;4940880;28;19926;-89
2021/12/25 15:19:46;;;;;;;;;;;-2.60;99.90;;;;;;4940742;28;20417;-84
2021/12/25 15:22:13;;;;;;;;;;;-2.60;99.90;;;;;;4952615;28;19926;-87
2021/12/25 15:26:16;;;;;;;;;;;-2.60;99.90;;;;;;5123386;27;1978030;-84
2021/12/25 15:28:43;;;;;;;;;;;-2.70;99.90;;;;;;5157825;27;20301;-85
2021/12/25 15:31:19;;;;;;;;;;;-2.70;99.90;;;;;;5174574;27;19922;-84
2021/12/25 15:33:46;;;;;;;;;;;-2.80;99.90;;;;;;5146351;27;19976;-86
2021/12/25 15:36:12;;;;;;;;;;;-2.80;99.90;;;;;;5139698;27;20389;-86
2021/12/25 15:38:38;;;;;;;;;;;-2.80;99.90;;;;;;5136552;27;19968;-87
2021/12/25 15:41:06;;;;;;;;;;;-2.90;99.90;;;;;;5154963;27;20366;-88
2021/12/25 15:43:31;;;;;;;;;;;-2.90;99.90;;;;;;5123580;27;19971;-86
2021/12/25 15:46:03;;;;;;;;;;;-2.90;99.90;;;;;;5136494;27;19923;-88
2021/12/25 15:48:38;;;;;;;;;;;-2.90;99.90;;;;;;5138760;27;19967;-84
2021/12/25 15:51:21;;;;;;;;;;;-3.00;99.90;;;;;;5153528;27;19923;-87
2021/12/25 15:53:52;;;;;;;;;;;-3.10;99.90;;;;;;5135696;27;19923;-86
2021/12/25 15:56:20;;;;;;;;;;;-3.00;99.90;;;;;;5136168;27;20160;-86
2021/12/25 15:58:47;;;;;;;;;;;-3.10;99.90;;;;;;5136941;27;20022;-85
2021/12/25 16:01:20;;;;;;;;;;;-3.10;99.90;;;;;;5119146;27;19923;-86
2021/12/25 16:03:45;;;;;;;;;;;-3.10;99.90;;;;;;5131969;27;20052;-86
2021/12/25 16:06:21;;;;;;;;;;;-3.20;99.90;;;;;;5147461;27;20421;-89
2021/12/25 16:08:49;;;;;;;;;;;-3.10;99.90;;;;;;5158376;27;19922;-85
2021/12/25 16:11:17;;;;;;;;;;;-3.10;99.90;;;;;;5139536;27;20025;-86
2021/12/25 16:13:45;;;;;;;;;;;-3.20;99.90;;;;;;5139496;27;19929;-87
2021/12/25 16:16:21;;;;;;;;;;;;;;;;;;;;;
2021/12/25 16:18:50;;;;;;;;;;;-3.30;99.90;;;;;;5140092;27;20385;-83
2021/12/25 16:21:16;;;;;;;;;;;-3.20;99.90;;;;;;5136157;27;19923;-86
2021/12/25 16:23:41;;;;;;;;;;;-3.20;99.90;;;;;;5118899;27;20435;-86
2021/12/25 16:26:09;;;;;;;;;;;-3.30;99.90;;;;;;5120514;27;20316;-84
2021/12/25 16:28:35;;;;;;;;;;;-3.30;99.90;;;;;;5126102;27;19930;-85
2021/12/25 16:31:03;;;;;;;;;;;-3.30;99.90;;;;;;5118908;27;19931;-85
2021/12/25 16:33:34;;;;;;;;;;;-3.30;99.90;;;;;;5136690;27;19927;-84
2021/12/25 16:36:02;;;;;;;;;;;-3.40;99.90;;;;;;5112954;27;19989;-87
2021/12/25 16:38:35;;;;;;;;;;;-3.40;99.90;;;;;;5125289;27;19935;-85
2021/12/25 16:41:01;;;;;;;;;;;-3.40;99.90;;;;;;5144053;27;19930;-84
2021/12/25 16:43:30;;;;;;;;;;;-3.40;99.90;;;;;;5125360;27;19926;-85
2021/12/25 16:45:59;;;;;;;;;;;-3.50;99.90;;;;;;5125628;27;19978;-87
2021/12/25 16:48:25;;;;;;;;;;;-3.50;99.90;;;;;;5140502;27;19922;-84
2021/12/25 16:50:50;;;;;;;;;;;-3.50;99.90;;;;;;5124998;27;19923;-84
2021/12/25 16:53:18;;;;;;;;;;;-3.60;99.90;;;;;;5124593;27;19929;-85
2021/12/25 16:55:48;;;;;;;;;;;-3.60;99.90;;;;;;5142530;27;19929;-82
2021/12/25 16:58:16;;;;;;;;;;;-3.60;99.90;;;;;;5116381;27;19930;-88
2021/12/25 17:00:41;;;;;;;;;;;-3.60;99.90;;;;;;5133830;27;19966;-84
2021/12/25 17:03:08;;;;;;;;;;;-3.60;99.90;;;;;;5104188;27;19966;-86
2021/12/25 17:05:38;;;;;;;;;;;-3.60;99.90;;;;;;5131624;27;19923;-84
2021/12/25 17:08:04;;;;;;;;;;;-3.70;99.90;;;;;;5141836;27;19971;-84
2021/12/25 17:22:30;;;;;;;3.55;1.80;;;-3.60;99.90;;;;;;5109404;27;20378;-85
2021/12/25 17:24:58;;;;;;;3.58;1.65;;;-3.00;99.90;;;;;;5053072;28;20109;-85
2021/12/25 17:27:26;;;;;;;3.08;1.80;;;-3.20;99.90;;;;;;5074971;28;20047;-85
2021/12/25 17:29:52;;;;;;;3.03;1.60;;;-3.30;99.90;;;;;;5057850;28;20067;-85
2021/12/25 17:32:18;;;;;;;3.42;1.98;;;-3.20;99.90;;;;;;5074323;28;20087;-85
2021/12/25 17:34:46;;;;;;;2.97;1.88;;;-3.30;99.90;;;;;;5051266;28;20751;-85
2021/12/25 17:37:14;;;;;;;2.53;1.55;;;-3.40;99.90;;;;;;5059267;28;20437;-85
2021/12/25 17:39:41;;;;;;;4.00;1.70;;;-3.40;99.90;;;;;;5061868;28;20488;-85
2021/12/25 17:42:09;;;;;;;3.22;1.52;;;-3.50;99.90;;;;;;5058544;28;20050;-86
2021/12/25 17:44:47;;;;;;;3.03;1.80;;;-3.60;99.90;;;;;;5092351;28;20039;-85
2021/12/25 17:47:13;;;;;;;4.70;1.50;;;-3.60;99.90;;;;;;5076198;28;20105;-85
2021/12/25 17:49:38;;;;;;;3.60;1.73;;;-3.70;99.90;;;;;;5075009;28;20397;-85
2021/12/25 17:52:09;;;;;;;3.38;1.70;;;-3.70;99.90;;;;;;5041525;28;20081;-85
2021/12/25 17:54:35;;;;;;;;;;;-3.70;99.90;;;;;;5041599;28;20185;-85
2021/12/25 17:57:03;;;;;;;4.55;1.90;;;-3.90;99.90;;;;;;5074349;28;20010;-86
2021/12/25 17:59:29;;;;;;;3.05;1.30;;;-3.80;99.90;;;;;;5090075;28;20058;-85
2021/12/25 18:01:59;;;;;;;2.90;1.48;;;-3.80;99.90;;;;;;5047648;28;20059;-85
2021/12/25 18:04:28;;;;;;;;;;;-3.90;99.90;;;;;;5059567;28;20081;-85
2021/12/25 18:07:03;;;;;;;2.45;1.48;;;-3.90;99.90;;;;;;5073777;28;20034;-85